sensor_id;sensor_type;location;lat;lon;timestamp;temperature;humidity
68128;SHT30;54931;52.098;21.006;2023-06-01T00:00:20;10.35;59.49
68128;SHT30;54931;52.098;21.006;2023-06-01T00:03:08;10.33;59.46
68128;SHT30;54931;52.098;21.006;2023-06-01T00:05:36;10.30;59.52
68128;SHT30;54931;52.098;21.006;2023-06-01T00:08:03;10.29;59.51
68128;SHT30;54931;52.098;21.006;2023-06-01T00:10:31;10.27;59.56
68128;SHT30;54931;52.098;21.006;2023-06-01T00:12:59;10.24;59.61
68128;SHT30;54931;52.098;21.006;2023-06-01T00:15:27;10.23;59.58
68128;SHT30;54931;52.098;21.006;2023-06-01T00:17:55;10.22;59.52
68128;SHT30;54931;52.098;21.006;2023-06-01T00:20:23;10.22;59.55
68128;SHT30;54931;52.098;21.006;2023-06-01T00:22:51;10.20;59.63
68128;SHT30;54931;52.098;21.006;2023-06-01T00:25:20;10.17;59.79
68128;SHT30;54931;52.098;21.006;2023-06-01T00:27:49;10.14;59.80
68128;SHT30;54931;52.098;21.006;2023-06-01T00:30:18;10.12;59.92
68128;SHT30;54931;52.098;21.006;2023-06-01T00:32:48;10.09;60.08
68128;SHT30;54931;52.098;21.006;2023-06-01T00:35:18;10.07;60.05
68128;SHT30;54931;52.098;21.006;2023-06-01T00:37:47;10.03;60.22
68128;SHT30;54931;52.098;21.006;2023-06-01T00:40:15;10.01;60.48
68128;SHT30;54931;52.098;21.006;2023-06-01T00:42:43;9.99;60.77
68128;SHT30;54931;52.098;21.006;2023-06-01T00:45:10;9.99;60.83
68128;SHT30;54931;52.098;21.006;2023-06-01T00:47:39;9.96;60.99
68128;SHT30;54931;52.098;21.006;2023-06-01T00:50:10;9.94;61.10
68128;SHT30;54931;52.098;21.006;2023-06-01T00:52:39;9.92;61.21
68128;SHT30;54931;52.098;21.006;2023-06-01T00:55:07;9.91;61.36
68128;SHT30;54931;52.098;21.006;2023-06-01T00:57:37;9.90;61.42
68128;SHT30;54931;52.098;21.006;2023-06-01T01:00:06;9.88;61.40
68128;SHT30;54931;52.098;21.006;2023-06-01T01:02:37;9.85;61.45
68128;SHT30;54931;52.098;21.006;2023-06-01T01:05:06;9.82;61.37
68128;SHT30;54931;52.098;21.006;2023-06-01T01:14:20;9.75;60.89
68128;SHT30;54931;52.098;21.006;2023-06-01T01:28:06;9.73;60.88
68128;SHT30;54931;52.098;21.006;2023-06-01T01:30:47;9.71;61.03
68128;SHT30;54931;52.098;21.006;2023-06-01T01:33:17;9.70;61.02
68128;SHT30;54931;52.098;21.006;2023-06-01T01:35:45;9.67;61.10
68128;SHT30;54931;52.098;21.006;2023-06-01T01:38:13;9.64;61.17
68128;SHT30;54931;52.098;21.006;2023-06-01T01:40:40;9.64;61.18
68128;SHT30;54931;52.098;21.006;2023-06-01T01:43:08;9.61;61.33
68128;SHT30;54931;52.098;21.006;2023-06-01T01:45:35;9.58;61.39
68128;SHT30;54931;52.098;21.006;2023-06-01T01:48:11;9.57;61.51
68128;SHT30;54931;52.098;21.006;2023-06-01T01:50:56;9.54;61.68
68128;SHT30;54931;52.098;21.006;2023-06-01T01:53:29;9.52;61.70
68128;SHT30;54931;52.098;21.006;2023-06-01T01:55:58;9.52;61.75
68128;SHT30;54931;52.098;21.006;2023-06-01T01:58:26;9.51;61.92
68128;SHT30;54931;52.098;21.006;2023-06-01T02:00:55;9.48;62.00
68128;SHT30;54931;52.098;21.006;2023-06-01T02:03:23;9.48;61.79
68128;SHT30;54931;52.098;21.006;2023-06-01T02:05:51;9.46;61.61
68128;SHT30;54931;52.098;21.006;2023-06-01T02:08:18;9.48;61.58
68128;SHT30;54931;52.098;21.006;2023-06-01T02:10:45;9.47;61.58
68128;SHT30;54931;52.098;21.006;2023-06-01T02:13:13;9.48;61.54
68128;SHT30;54931;52.098;21.006;2023-06-01T02:15:40;9.46;61.54
68128;SHT30;54931;52.098;21.006;2023-06-01T02:18:08;9.47;61.57
68128;SHT30;54931;52.098;21.006;2023-06-01T02:20:35;9.49;61.42
68128;SHT30;54931;52.098;21.006;2023-06-01T02:23:03;9.48;61.45
68128;SHT30;54931;52.098;21.006;2023-06-01T02:25:30;9.47;61.44
68128;SHT30;54931;52.098;21.006;2023-06-01T02:27:57;9.49;61.55
68128;SHT30;54931;52.098;21.006;2023-06-01T02:30:25;9.49;61.69
68128;SHT30;54931;52.098;21.006;2023-06-01T02:32:53;9.50;61.79
68128;SHT30;54931;52.098;21.006;2023-06-01T02:35:20;9.51;61.95
68128;SHT30;54931;52.098;21.006;2023-06-01T02:37:48;9.53;62.03
68128;SHT30;54931;52.098;21.006;2023-06-01T02:40:15;9.55;61.82
68128;SHT30;54931;52.098;21.006;2023-06-01T02:42:43;9.57;61.70
68128;SHT30;54931;52.098;21.006;2023-06-01T02:45:11;9.58;61.73
68128;SHT30;54931;52.098;21.006;2023-06-01T02:47:38;9.62;61.48
68128;SHT30;54931;52.098;21.006;2023-06-01T02:50:06;9.63;61.45
68128;SHT30;54931;52.098;21.006;2023-06-01T02:52:34;9.67;61.38
68128;SHT30;54931;52.098;21.006;2023-06-01T02:55:02;9.72;61.32
68128;SHT30;54931;52.098;21.006;2023-06-01T02:57:30;9.74;61.14
68128;SHT30;54931;52.098;21.006;2023-06-01T02:59:58;9.79;60.96
68128;SHT30;54931;52.098;21.006;2023-06-01T03:02:25;9.82;60.86
68128;SHT30;54931;52.098;21.006;2023-06-01T03:04:53;9.88;60.80
68128;SHT30;54931;52.098;21.006;2023-06-01T03:07:21;9.93;60.63
68128;SHT30;54931;52.098;21.006;2023-06-01T03:09:50;9.99;60.52
68128;SHT30;54931;52.098;21.006;2023-06-01T03:12:17;10.07;60.34
68128;SHT30;54931;52.098;21.006;2023-06-01T03:14:45;10.15;60.07
68128;SHT30;54931;52.098;21.006;2023-06-01T03:17:12;10.28;60.02
68128;SHT30;54931;52.098;21.006;2023-06-01T03:19:39;10.50;59.65
68128;SHT30;54931;52.098;21.006;2023-06-01T03:22:07;10.61;59.34
68128;SHT30;54931;52.098;21.006;2023-06-01T03:24:35;10.66;59.49
68128;SHT30;54931;52.098;21.006;2023-06-01T03:27:03;10.74;59.39
68128;SHT30;54931;52.098;21.006;2023-06-01T03:29:31;10.87;59.50
68128;SHT30;54931;52.098;21.006;2023-06-01T03:31:58;11.03;59.32
68128;SHT30;54931;52.098;21.006;2023-06-01T03:34:26;11.25;59.02
68128;SHT30;54931;52.098;21.006;2023-06-01T03:36:59;11.54;58.58
68128;SHT30;54931;52.098;21.006;2023-06-01T03:39:27;11.85;57.88
68128;SHT30;54931;52.098;21.006;2023-06-01T03:41:55;12.18;57.35
68128;SHT30;54931;52.098;21.006;2023-06-01T03:44:23;12.51;56.94
68128;SHT30;54931;52.098;21.006;2023-06-01T03:46:50;12.86;56.23
68128;SHT30;54931;52.098;21.006;2023-06-01T03:49:18;13.18;55.51
68128;SHT30;54931;52.098;21.006;2023-06-01T03:51:47;13.51;54.98
68128;SHT30;54931;52.098;21.006;2023-06-01T03:54:15;13.84;54.48
68128;SHT30;54931;52.098;21.006;2023-06-01T03:56:42;14.15;53.99
68128;SHT30;54931;52.098;21.006;2023-06-01T03:59:09;14.48;53.09
68128;SHT30;54931;52.098;21.006;2023-06-01T04:01:37;14.82;52.59
68128;SHT30;54931;52.098;21.006;2023-06-01T04:04:07;15.16;52.09
68128;SHT30;54931;52.098;21.006;2023-06-01T04:06:35;15.49;51.40
68128;SHT30;54931;52.098;21.006;2023-06-01T04:09:03;15.82;50.81
68128;SHT30;54931;52.098;21.006;2023-06-01T04:11:34;16.09;50.37
68128;SHT30;54931;52.098;21.006;2023-06-01T04:14:02;16.37;50.14
68128;SHT30;54931;52.098;21.006;2023-06-01T04:16:30;16.66;48.97
68128;SHT30;54931;52.098;21.006;2023-06-01T04:18:57;16.93;48.66
68128;SHT30;54931;52.098;21.006;2023-06-01T04:21:25;17.20;47.68
68128;SHT30;54931;52.098;21.006;2023-06-01T04:23:53;17.45;47.37
68128;SHT30;54931;52.098;21.006;2023-06-01T04:26:20;17.74;47.02
68128;SHT30;54931;52.098;21.006;2023-06-01T04:28:48;18.00;46.92
68128;SHT30;54931;52.098;21.006;2023-06-01T04:31:15;18.30;46.44
68128;SHT30;54931;52.098;21.006;2023-06-01T04:33:46;18.65;45.95
68128;SHT30;54931;52.098;21.006;2023-06-01T04:36:19;18.96;45.32
68128;SHT30;54931;52.098;21.006;2023-06-01T04:38:51;19.18;44.49
68128;SHT30;54931;52.098;21.006;2023-06-01T04:41:21;19.36;44.50
68128;SHT30;54931;52.098;21.006;2023-06-01T04:43:49;19.59;43.64
68128;SHT30;54931;52.098;21.006;2023-06-01T04:46:19;19.74;42.94
68128;SHT30;54931;52.098;21.006;2023-06-01T04:48:50;19.85;42.84
68128;SHT30;54931;52.098;21.006;2023-06-01T04:51:28;19.99;42.43
68128;SHT30;54931;52.098;21.006;2023-06-01T04:53:56;20.18;42.60
68128;SHT30;54931;52.098;21.006;2023-06-01T04:56:24;20.35;42.10
68128;SHT30;54931;52.098;21.006;2023-06-01T04:58:54;20.45;40.96
68128;SHT30;54931;52.098;21.006;2023-06-01T05:01:23;20.53;41.24
68128;SHT30;54931;52.098;21.006;2023-06-01T05:03:52;20.65;40.47
68128;SHT30;54931;52.098;21.006;2023-06-01T05:06:21;20.67;40.11
68128;SHT30;54931;52.098;21.006;2023-06-01T05:08:49;20.74;40.44
68128;SHT30;54931;52.098;21.006;2023-06-01T05:11:17;20.86;40.60
68128;SHT30;54931;52.098;21.006;2023-06-01T05:13:45;21.10;40.73
68128;SHT30;54931;52.098;21.006;2023-06-01T05:16:12;21.36;39.80
68128;SHT30;54931;52.098;21.006;2023-06-01T05:18:40;21.41;39.83
68128;SHT30;54931;52.098;21.006;2023-06-01T05:21:07;21.64;40.00
68128;SHT30;54931;52.098;21.006;2023-06-01T05:23:35;21.92;40.25
68128;SHT30;54931;52.098;21.006;2023-06-01T05:26:02;22.21;39.33
68128;SHT30;54931;52.098;21.006;2023-06-01T05:28:30;22.28;38.43
68128;SHT30;54931;52.098;21.006;2023-06-01T05:30:58;22.36;38.95
68128;SHT30;54931;52.098;21.006;2023-06-01T05:33:26;22.48;38.23
68128;SHT30;54931;52.098;21.006;2023-06-01T05:35:53;22.45;37.50
68128;SHT30;54931;52.098;21.006;2023-06-01T05:38:21;22.49;38.45
68128;SHT30;54931;52.098;21.006;2023-06-01T05:40:48;22.59;37.72
68128;SHT30;54931;52.098;21.006;2023-06-01T05:43:15;22.57;37.14
68128;SHT30;54931;52.098;21.006;2023-06-01T05:45:43;22.69;37.44
68128;SHT30;54931;52.098;21.006;2023-06-01T05:48:11;22.76;36.61
68128;SHT30;54931;52.098;21.006;2023-06-01T05:50:41;22.85;36.95
68128;SHT30;54931;52.098;21.006;2023-06-01T05:53:09;22.89;36.13
68128;SHT30;54931;52.098;21.006;2023-06-01T05:55:37;22.93;36.07
68128;SHT30;54931;52.098;21.006;2023-06-01T05:58:04;22.91;35.77
68128;SHT30;54931;52.098;21.006;2023-06-01T06:00:32;22.86;36.07
68128;SHT30;54931;52.098;21.006;2023-06-01T06:03:02;23.11;35.65
68128;SHT30;54931;52.098;21.006;2023-06-01T06:05:31;23.17;35.66
68128;SHT30;54931;52.098;21.006;2023-06-01T06:07:58;23.26;35.27
68128;SHT30;54931;52.098;21.006;2023-06-01T06:10:26;23.33;36.33
68128;SHT30;54931;52.098;21.006;2023-06-01T06:12:53;23.64;35.52
68128;SHT30;54931;52.098;21.006;2023-06-01T06:15:21;23.64;34.68
68128;SHT30;54931;52.098;21.006;2023-06-01T06:17:48;23.77;34.86
68128;SHT30;54931;52.098;21.006;2023-06-01T06:20:16;23.80;34.23
68128;SHT30;54931;52.098;21.006;2023-06-01T06:22:44;23.79;34.77
68128;SHT30;54931;52.098;21.006;2023-06-01T06:25:11;23.95;34.37
68128;SHT30;54931;52.098;21.006;2023-06-01T06:27:40;24.06;35.28
68128;SHT30;54931;52.098;21.006;2023-06-01T06:30:08;24.30;34.64
68128;SHT30;54931;52.098;21.006;2023-06-01T06:32:36;24.41;34.46
68128;SHT30;54931;52.098;21.006;2023-06-01T06:35:03;24.63;34.86
68128;SHT30;54931;52.098;21.006;2023-06-01T06:37:31;24.93;34.52
68128;SHT30;54931;52.098;21.006;2023-06-01T06:39:59;25.18;33.68
68128;SHT30;54931;52.098;21.006;2023-06-01T06:42:26;25.33;33.48
68128;SHT30;54931;52.098;21.006;2023-06-01T06:44:54;25.51;32.77
68128;SHT30;54931;52.098;21.006;2023-06-01T06:47:24;25.52;32.84
68128;SHT30;54931;52.098;21.006;2023-06-01T06:49:52;25.66;33.23
68128;SHT30;54931;52.098;21.006;2023-06-01T06:52:20;25.85;33.11
68128;SHT30;54931;52.098;21.006;2023-06-01T06:54:47;25.81;32.38
68128;SHT30;54931;52.098;21.006;2023-06-01T06:57:15;25.76;32.65
68128;SHT30;54931;52.098;21.006;2023-06-01T06:59:43;25.71;31.46
68128;SHT30;54931;52.098;21.006;2023-06-01T07:02:11;25.69;31.70
68128;SHT30;54931;52.098;21.006;2023-06-01T07:04:39;25.78;32.48
68128;SHT30;54931;52.098;21.006;2023-06-01T07:07:07;26.02;32.31
68128;SHT30;54931;52.098;21.006;2023-06-01T07:09:34;26.13;31.86
68128;SHT30;54931;52.098;21.006;2023-06-01T07:12:01;26.07;31.51
68128;SHT30;54931;52.098;21.006;2023-06-01T07:14:29;26.21;32.70
68128;SHT30;54931;52.098;21.006;2023-06-01T07:16:56;26.40;31.66
68128;SHT30;54931;52.098;21.006;2023-06-01T07:19:25;26.34;30.68
68128;SHT30;54931;52.098;21.006;2023-06-01T07:21:59;26.24;31.11
68128;SHT30;54931;52.098;21.006;2023-06-01T07:24:27;26.34;31.12
68128;SHT30;54931;52.098;21.006;2023-06-01T07:26:55;26.42;31.21
68128;SHT30;54931;52.098;21.006;2023-06-01T07:29:24;26.58;31.24
68128;SHT30;54931;52.098;21.006;2023-06-01T07:31:52;26.65;30.29
68128;SHT30;54931;52.098;21.006;2023-06-01T07:34:19;26.68;30.91
68128;SHT30;54931;52.098;21.006;2023-06-01T07:36:47;26.87;30.06
68128;SHT30;54931;52.098;21.006;2023-06-01T07:39:16;26.83;29.36
68128;SHT30;54931;52.098;21.006;2023-06-01T07:41:44;26.90;30.13
68128;SHT30;54931;52.098;21.006;2023-06-01T07:44:12;26.92;29.70
68128;SHT30;54931;52.098;21.006;2023-06-01T07:46:40;26.91;29.14
68128;SHT30;54931;52.098;21.006;2023-06-01T07:49:07;26.67;27.96
68128;SHT30;54931;52.098;21.006;2023-06-01T07:51:40;26.47;29.44
68128;SHT30;54931;52.098;21.006;2023-06-01T07:54:09;26.47;29.02
68128;SHT30;54931;52.098;21.006;2023-06-01T07:56:37;26.52;30.06
68128;SHT30;54931;52.098;21.006;2023-06-01T07:59:05;26.55;28.43
68128;SHT30;54931;52.098;21.006;2023-06-01T08:01:32;26.48;28.53
68128;SHT30;54931;52.098;21.006;2023-06-01T08:04:00;26.46;29.18
68128;SHT30;54931;52.098;21.006;2023-06-01T08:06:28;26.56;28.74
68128;SHT30;54931;52.098;21.006;2023-06-01T08:09:02;26.57;27.89
68128;SHT30;54931;52.098;21.006;2023-06-01T08:11:30;26.44;28.25
68128;SHT30;54931;52.098;21.006;2023-06-01T08:13:57;26.43;27.65
68128;SHT30;54931;52.098;21.006;2023-06-01T08:16:27;26.43;27.93
68128;SHT30;54931;52.098;21.006;2023-06-01T08:18:54;26.46;28.65
68128;SHT30;54931;52.098;21.006;2023-06-01T08:21:24;26.54;28.36
68128;SHT30;54931;52.098;21.006;2023-06-01T08:23:52;26.57;27.87
68128;SHT30;54931;52.098;21.006;2023-06-01T08:26:22;26.50;28.41
68128;SHT30;54931;52.098;21.006;2023-06-01T08:28:50;26.55;28.39
68128;SHT30;54931;52.098;21.006;2023-06-01T08:31:20;26.64;29.14
68128;SHT30;54931;52.098;21.006;2023-06-01T08:33:49;26.86;29.12
68128;SHT30;54931;52.098;21.006;2023-06-01T08:36:20;27.03;28.60
68128;SHT30;54931;52.098;21.006;2023-06-01T08:38:48;27.00;27.90
68128;SHT30;54931;52.098;21.006;2023-06-01T08:41:24;26.87;26.95
68128;SHT30;54931;52.098;21.006;2023-06-01T08:44:01;26.75;27.33
68128;SHT30;54931;52.098;21.006;2023-06-01T08:46:33;26.77;28.19
68128;SHT30;54931;52.098;21.006;2023-06-01T08:49:01;26.86;27.81
68128;SHT30;54931;52.098;21.006;2023-06-01T08:51:29;26.94;27.27
68128;SHT30;54931;52.098;21.006;2023-06-01T08:54:00;27.00;28.39
68128;SHT30;54931;52.098;21.006;2023-06-01T08:56:30;27.26;28.00
68128;SHT30;54931;52.098;21.006;2023-06-01T08:58:58;27.35;26.70
68128;SHT30;54931;52.098;21.006;2023-06-01T09:01:27;27.34;26.45
68128;SHT30;54931;52.098;21.006;2023-06-01T09:03:55;27.36;27.69
68128;SHT30;54931;52.098;21.006;2023-06-01T09:06:23;27.54;27.44
68128;SHT30;54931;52.098;21.006;2023-06-01T09:08:50;27.58;26.04
68128;SHT30;54931;52.098;21.006;2023-06-01T09:11:18;27.48;25.82
68128;SHT30;54931;52.098;21.006;2023-06-01T09:13:46;27.34;26.54
68128;SHT30;54931;52.098;21.006;2023-06-01T09:16:14;27.33;26.78
68128;SHT30;54931;52.098;21.006;2023-06-01T09:18:52;27.38;26.56
68128;SHT30;54931;52.098;21.006;2023-06-01T09:21:20;27.38;26.11
68128;SHT30;54931;52.098;21.006;2023-06-01T09:23:48;27.38;26.48
68128;SHT30;54931;52.098;21.006;2023-06-01T09:26:17;27.31;26.50
68128;SHT30;54931;52.098;21.006;2023-06-01T09:28:55;27.49;27.83
68128;SHT30;54931;52.098;21.006;2023-06-01T09:31:43;27.81;26.60
68128;SHT30;54931;52.098;21.006;2023-06-01T09:34:15;27.94;26.16
68128;SHT30;54931;52.098;21.006;2023-06-01T09:36:51;27.87;26.53
68128;SHT30;54931;52.098;21.006;2023-06-01T09:39:23;27.88;26.69
68128;SHT30;54931;52.098;21.006;2023-06-01T09:41:52;27.98;26.96
68128;SHT30;54931;52.098;21.006;2023-06-01T09:44:38;27.92;26.51
68128;SHT30;54931;52.098;21.006;2023-06-01T09:47:07;27.98;27.40
68128;SHT30;54931;52.098;21.006;2023-06-01T09:49:39;28.08;27.34
68128;SHT30;54931;52.098;21.006;2023-06-01T09:57:10;27.83;26.21
68128;SHT30;54931;52.098;21.006;2023-06-01T10:02:17;27.69;27.37
68128;SHT30;54931;52.098;21.006;2023-06-01T10:04:47;27.77;27.27
68128;SHT30;54931;52.098;21.006;2023-06-01T10:07:27;27.82;27.38
68128;SHT30;54931;52.098;21.006;2023-06-01T10:09:56;27.79;26.83
68128;SHT30;54931;52.098;21.006;2023-06-01T10:12:25;27.76;26.92
68128;SHT30;54931;52.098;21.006;2023-06-01T10:14:57;27.81;26.83
68128;SHT30;54931;52.098;21.006;2023-06-01T10:17:25;27.87;26.50
68128;SHT30;54931;52.098;21.006;2023-06-01T10:19:53;27.86;26.73
68128;SHT30;54931;52.098;21.006;2023-06-01T10:22:23;27.92;26.99
68128;SHT30;54931;52.098;21.006;2023-06-01T10:24:54;28.06;27.89
68128;SHT30;54931;52.098;21.006;2023-06-01T10:30:28;28.13;26.72
68128;SHT30;54931;52.098;21.006;2023-06-01T10:32:56;28.10;26.43
68128;SHT30;54931;52.098;21.006;2023-06-01T10:40:34;27.81;27.39
68128;SHT30;54931;52.098;21.006;2023-06-01T10:43:03;27.89;27.63
68128;SHT30;54931;52.098;21.006;2023-06-01T10:48:08;28.00;28.24
68128;SHT30;54931;52.098;21.006;2023-06-01T10:50:39;28.14;28.45
68128;SHT30;54931;52.098;21.006;2023-06-01T11:01:40;27.97;26.19
68128;SHT30;54931;52.098;21.006;2023-06-01T11:04:09;27.85;27.06
68128;SHT30;54931;52.098;21.006;2023-06-01T11:06:38;27.86;26.53
68128;SHT30;54931;52.098;21.006;2023-06-01T11:09:08;27.73;25.93
68128;SHT30;54931;52.098;21.006;2023-06-01T11:14:21;27.49;27.14
68128;SHT30;54931;52.098;21.006;2023-06-01T11:16:53;27.37;27.05
68128;SHT30;54931;52.098;21.006;2023-06-01T11:19:22;27.28;27.79
68128;SHT30;54931;52.098;21.006;2023-06-01T11:21:55;27.37;29.09
68128;SHT30;54931;52.098;21.006;2023-06-01T11:24:34;27.40;27.72
68128;SHT30;54931;52.098;21.006;2023-06-01T11:27:07;27.17;26.31
68128;SHT30;54931;52.098;21.006;2023-06-01T11:29:37;26.91;26.80
68128;SHT30;54931;52.098;21.006;2023-06-01T11:32:05;26.82;27.86
68128;SHT30;54931;52.098;21.006;2023-06-01T11:34:36;26.85;27.91
68128;SHT30;54931;52.098;21.006;2023-06-01T11:37:06;26.86;27.92
68128;SHT30;54931;52.098;21.006;2023-06-01T11:39:39;26.82;28.15
68128;SHT30;54931;52.098;21.006;2023-06-01T11:42:09;26.73;28.48
68128;SHT30;54931;52.098;21.006;2023-06-01T11:44:39;26.77;29.64
68128;SHT30;54931;52.098;21.006;2023-06-01T11:47:07;26.86;29.34
68128;SHT30;54931;52.098;21.006;2023-06-01T11:49:46;26.87;27.79
68128;SHT30;54931;52.098;21.006;2023-06-01T11:52:16;26.85;28.34
68128;SHT30;54931;52.098;21.006;2023-06-01T11:54:45;26.88;29.47
68128;SHT30;54931;52.098;21.006;2023-06-01T11:57:13;27.06;29.67
68128;SHT30;54931;52.098;21.006;2023-06-01T11:59:42;27.23;29.04
68128;SHT30;54931;52.098;21.006;2023-06-01T12:02:18;27.20;27.94
68128;SHT30;54931;52.098;21.006;2023-06-01T12:04:57;27.12;28.64
68128;SHT30;54931;52.098;21.006;2023-06-01T12:07:26;27.10;28.17
68128;SHT30;54931;52.098;21.006;2023-06-01T12:09:54;27.08;28.13
68128;SHT30;54931;52.098;21.006;2023-06-01T12:12:24;27.10;28.63
68128;SHT30;54931;52.098;21.006;2023-06-01T12:14:52;27.21;29.52
68128;SHT30;54931;52.098;21.006;2023-06-01T12:17:19;27.32;28.81
68128;SHT30;54931;52.098;21.006;2023-06-01T12:19:47;27.36;28.85
68128;SHT30;54931;52.098;21.006;2023-06-01T12:22:16;27.32;29.23
68128;SHT30;54931;52.098;21.006;2023-06-01T12:24:44;27.38;29.29
68128;SHT30;54931;52.098;21.006;2023-06-01T12:27:18;27.47;29.03
68128;SHT30;54931;52.098;21.006;2023-06-01T12:29:48;27.61;29.63
68128;SHT30;54931;52.098;21.006;2023-06-01T12:32:18;27.73;28.31
68128;SHT30;54931;52.098;21.006;2023-06-01T12:35:02;27.74;28.08
68128;SHT30;54931;52.098;21.006;2023-06-01T12:37:32;27.67;28.45
68128;SHT30;54931;52.098;21.006;2023-06-01T12:39:59;27.69;28.51
68128;SHT30;54931;52.098;21.006;2023-06-01T12:42:37;27.59;28.22
68128;SHT30;54931;52.098;21.006;2023-06-01T12:45:06;27.49;29.14
68128;SHT30;54931;52.098;21.006;2023-06-01T12:47:41;27.54;29.55
68128;SHT30;54931;52.098;21.006;2023-06-01T12:50:10;27.58;28.63
68128;SHT30;54931;52.098;21.006;2023-06-01T12:52:40;27.54;28.27
68128;SHT30;54931;52.098;21.006;2023-06-01T12:55:11;27.46;27.15
68128;SHT30;54931;52.098;21.006;2023-06-01T12:57:38;27.39;27.30
68128;SHT30;54931;52.098;21.006;2023-06-01T13:00:06;27.35;27.70
68128;SHT30;54931;52.098;21.006;2023-06-01T13:02:35;27.34;27.85
68128;SHT30;54931;52.098;21.006;2023-06-01T13:05:03;27.36;28.05
68128;SHT30;54931;52.098;21.006;2023-06-01T13:07:33;27.42;28.75
68128;SHT30;54931;52.098;21.006;2023-06-01T13:10:00;27.50;29.07
68128;SHT30;54931;52.098;21.006;2023-06-01T13:12:28;27.56;28.06
68128;SHT30;54931;52.098;21.006;2023-06-01T13:14:55;27.56;28.40
68128;SHT30;54931;52.098;21.006;2023-06-01T13:17:24;27.66;27.95
68128;SHT30;54931;52.098;21.006;2023-06-01T13:19:53;27.67;27.37
68128;SHT30;54931;52.098;21.006;2023-06-01T13:22:21;27.67;27.55
68128;SHT30;54931;52.098;21.006;2023-06-01T13:24:48;27.72;28.42
68128;SHT30;54931;52.098;21.006;2023-06-01T13:27:15;27.73;27.21
68128;SHT30;54931;52.098;21.006;2023-06-01T13:29:43;27.69;27.20
68128;SHT30;54931;52.098;21.006;2023-06-01T13:32:10;27.63;27.01
68128;SHT30;54931;52.098;21.006;2023-06-01T13:34:38;27.59;27.26
68128;SHT30;54931;52.098;21.006;2023-06-01T13:37:06;27.51;27.43
68128;SHT30;54931;52.098;21.006;2023-06-01T13:39:34;27.51;27.60
68128;SHT30;54931;52.098;21.006;2023-06-01T13:42:01;27.51;27.52
68128;SHT30;54931;52.098;21.006;2023-06-01T13:44:29;27.50;27.69
68128;SHT30;54931;52.098;21.006;2023-06-01T13:46:57;27.63;27.86
68128;SHT30;54931;52.098;21.006;2023-06-01T13:49:25;27.69;27.24
68128;SHT30;54931;52.098;21.006;2023-06-01T13:51:54;27.67;27.17
68128;SHT30;54931;52.098;21.006;2023-06-01T13:54:21;27.68;28.01
68128;SHT30;54931;52.098;21.006;2023-06-01T13:56:49;27.80;28.56
68128;SHT30;54931;52.098;21.006;2023-06-01T13:59:17;27.91;29.44
68128;SHT30;54931;52.098;21.006;2023-06-01T14:01:44;27.96;28.09
68128;SHT30;54931;52.098;21.006;2023-06-01T14:04:12;27.98;27.68
68128;SHT30;54931;52.098;21.006;2023-06-01T14:06:39;27.99;28.74
68128;SHT30;54931;52.098;21.006;2023-06-01T14:09:07;28.08;28.77
68128;SHT30;54931;52.098;21.006;2023-06-01T14:11:35;28.19;27.07
68128;SHT30;54931;52.098;21.006;2023-06-01T14:14:02;28.15;26.98
68128;SHT30;54931;52.098;21.006;2023-06-01T14:16:30;28.13;26.32
68128;SHT30;54931;52.098;21.006;2023-06-01T14:18:57;28.04;26.32
68128;SHT30;54931;52.098;21.006;2023-06-01T14:21:25;28.06;26.56
68128;SHT30;54931;52.098;21.006;2023-06-01T14:23:53;28.03;26.16
68128;SHT30;54931;52.098;21.006;2023-06-01T14:26:20;27.97;25.83
68128;SHT30;54931;52.098;21.006;2023-06-01T14:28:48;27.92;26.58
68128;SHT30;54931;52.098;21.006;2023-06-01T14:31:15;28.02;26.15
68128;SHT30;54931;52.098;21.006;2023-06-01T14:33:44;28.05;26.40
68128;SHT30;54931;52.098;21.006;2023-06-01T14:36:14;28.06;26.99
68128;SHT30;54931;52.098;21.006;2023-06-01T14:38:42;28.08;26.22
68128;SHT30;54931;52.098;21.006;2023-06-01T14:41:10;28.01;26.77
68128;SHT30;54931;52.098;21.006;2023-06-01T14:43:38;28.07;27.43
68128;SHT30;54931;52.098;21.006;2023-06-01T14:46:06;28.13;27.00
68128;SHT30;54931;52.098;21.006;2023-06-01T14:48:33;28.14;26.49
68128;SHT30;54931;52.098;21.006;2023-06-01T14:51:01;28.22;26.81
68128;SHT30;54931;52.098;21.006;2023-06-01T14:53:29;28.36;26.19
68128;SHT30;54931;52.098;21.006;2023-06-01T14:55:56;28.56;25.97
68128;SHT30;54931;52.098;21.006;2023-06-01T14:58:24;28.85;26.16
68128;SHT30;54931;52.098;21.006;2023-06-01T15:00:51;29.25;26.46
68128;SHT30;54931;52.098;21.006;2023-06-01T15:03:19;29.51;24.99
68128;SHT30;54931;52.098;21.006;2023-06-01T15:05:47;29.57;24.78
68128;SHT30;54931;52.098;21.006;2023-06-01T15:08:14;29.68;25.23
68128;SHT30;54931;52.098;21.006;2023-06-01T15:10:41;29.88;24.70
68128;SHT30;54931;52.098;21.006;2023-06-01T15:13:11;29.93;23.95
68128;SHT30;54931;52.098;21.006;2023-06-01T15:15:42;29.92;24.09
68128;SHT30;54931;52.098;21.006;2023-06-01T15:18:10;29.95;23.85
68128;SHT30;54931;52.098;21.006;2023-06-01T15:20:37;30.00;24.57
68128;SHT30;54931;52.098;21.006;2023-06-01T15:23:05;30.25;24.55
68128;SHT30;54931;52.098;21.006;2023-06-01T15:25:32;30.42;24.73
68128;SHT30;54931;52.098;21.006;2023-06-01T15:28:00;30.63;24.69
68128;SHT30;54931;52.098;21.006;2023-06-01T15:30:27;30.76;24.44
68128;SHT30;54931;52.098;21.006;2023-06-01T15:32:58;30.72;23.30
68128;SHT30;54931;52.098;21.006;2023-06-01T15:35:25;30.63;23.68
68128;SHT30;54931;52.098;21.006;2023-06-01T15:37:53;30.74;23.53
68128;SHT30;54931;52.098;21.006;2023-06-01T15:40:21;30.84;23.89
68128;SHT30;54931;52.098;21.006;2023-06-01T15:42:48;31.00;23.68
68128;SHT30;54931;52.098;21.006;2023-06-01T15:45:15;30.96;23.45
68128;SHT30;54931;52.098;21.006;2023-06-01T15:47:43;30.97;24.21
68128;SHT30;54931;52.098;21.006;2023-06-01T15:50:11;31.05;24.60
68128;SHT30;54931;52.098;21.006;2023-06-01T15:52:39;31.28;24.41
68128;SHT30;54931;52.098;21.006;2023-06-01T15:55:06;31.28;23.86
68128;SHT30;54931;52.098;21.006;2023-06-01T15:57:35;31.30;24.14
68128;SHT30;54931;52.098;21.006;2023-06-01T16:00:03;31.25;23.97
68128;SHT30;54931;52.098;21.006;2023-06-01T16:02:31;31.21;23.99
68128;SHT30;54931;52.098;21.006;2023-06-01T16:04:58;31.06;24.01
68128;SHT30;54931;52.098;21.006;2023-06-01T16:07:26;30.89;24.49
68128;SHT30;54931;52.098;21.006;2023-06-01T16:09:53;30.84;24.66
68128;SHT30;54931;52.098;21.006;2023-06-01T16:12:20;30.74;24.78
68128;SHT30;54931;52.098;21.006;2023-06-01T16:14:48;30.60;25.09